sensor_id;sensor_type;location;lat;lon;timestamp;P1;durP1;ratioP1;P2;durP2;ratioP2
22318;SDS011;11327;52.334;9.506;2024-02-21T00:02:51;33.80;;;15.85;;
22318;SDS011;11327;52.334;9.506;2024-02-21T00:06:13;27.95;;;15.32;;
22318;SDS011;11327;52.334;9.506;2024-02-21T00:09:33;33.48;;;16.57;;
22318;SDS011;11327;52.334;9.506;2024-02-21T00:12:54;31.77;;;16.52;;
22318;SDS011;11327;52.334;9.506;2024-02-21T00:16:15;32.93;;;16.00;;
22318;SDS011;11327;52.334;9.506;2024-02-21T00:19:36;30.52;;;16.40;;
22318;SDS011;11327;52.334;9.506;2024-02-21T00:22:57;29.70;;;16.00;;
22318;SDS011;11327;52.334;9.506;2024-02-21T00:26:17;31.75;;;16.25;;
22318;SDS011;11327;52.334;9.506;2024-02-21T00:29:38;31.60;;;16.12;;
22318;SDS011;11327;52.334;9.506;2024-02-21T00:32:59;31.70;;;15.95;;
22318;SDS011;11327;52.334;9.506;2024-02-21T00:36:19;27.67;;;15.88;;
22318;SDS011;11327;52.334;9.506;2024-02-21T00:39:40;31.17;;;16.35;;
22318;SDS011;11327;52.334;9.506;2024-02-21T00:43:02;29.23;;;16.37;;
22318;SDS011;11327;52.334;9.506;2024-02-21T00:46:23;33.65;;;17.37;;
22318;SDS011;11327;52.334;9.506;2024-02-21T00:49:44;33.78;;;16.25;;
22318;SDS011;11327;52.334;9.506;2024-02-21T00:53:06;31.37;;;16.65;;
22318;SDS011;11327;52.334;9.506;2024-02-21T00:56:27;34.98;;;17.02;;
22318;SDS011;11327;52.334;9.506;2024-02-21T00:59:48;28.47;;;15.70;;
22318;SDS011;11327;52.334;9.506;2024-02-21T01:03:09;32.35;;;17.10;;
22318;SDS011;11327;52.334;9.506;2024-02-21T01:06:30;30.97;;;16.45;;
22318;SDS011;11327;52.334;9.506;2024-02-21T01:09:50;32.25;;;17.15;;
22318;SDS011;11327;52.334;9.506;2024-02-21T01:13:11;32.98;;;17.87;;
22318;SDS011;11327;52.334;9.506;2024-02-21T01:16:32;35.45;;;17.92;;
22318;SDS011;11327;52.334;9.506;2024-02-21T01:19:53;34.67;;;17.80;;
22318;SDS011;11327;52.334;9.506;2024-02-21T01:23:13;33.92;;;18.00;;
22318;SDS011;11327;52.334;9.506;2024-02-21T01:26:34;32.87;;;17.13;;
22318;SDS011;11327;52.334;9.506;2024-02-21T01:29:55;30.27;;;17.10;;
22318;SDS011;11327;52.334;9.506;2024-02-21T01:33:15;33.00;;;17.05;;
22318;SDS011;11327;52.334;9.506;2024-02-21T01:36:36;32.60;;;17.27;;
22318;SDS011;11327;52.334;9.506;2024-02-21T01:39:57;32.55;;;17.70;;
22318;SDS011;11327;52.334;9.506;2024-02-21T01:43:19;30.45;;;16.15;;
22318;SDS011;11327;52.334;9.506;2024-02-21T01:46:40;31.45;;;16.87;;
22318;SDS011;11327;52.334;9.506;2024-02-21T01:50:02;31.05;;;17.55;;
22318;SDS011;11327;52.334;9.506;2024-02-21T01:53:25;32.48;;;17.20;;
22318;SDS011;11327;52.334;9.506;2024-02-21T01:56:48;30.72;;;16.05;;
22318;SDS011;11327;52.334;9.506;2024-02-21T02:00:09;31.87;;;17.32;;
22318;SDS011;11327;52.334;9.506;2024-02-21T02:03:33;34.10;;;16.65;;
22318;SDS011;11327;52.334;9.506;2024-02-21T02:06:55;32.50;;;17.65;;
22318;SDS011;11327;52.334;9.506;2024-02-21T02:10:16;29.72;;;16.32;;
22318;SDS011;11327;52.334;9.506;2024-02-21T02:13:36;31.15;;;17.62;;
22318;SDS011;11327;52.334;9.506;2024-02-21T02:16:57;32.17;;;17.05;;
22318;SDS011;11327;52.334;9.506;2024-02-21T02:20:18;29.72;;;16.23;;
22318;SDS011;11327;52.334;9.506;2024-02-21T02:23:38;33.92;;;17.90;;
22318;SDS011;11327;52.334;9.506;2024-02-21T02:27:00;31.65;;;18.07;;
22318;SDS011;11327;52.334;9.506;2024-02-21T02:30:21;31.95;;;17.67;;
22318;SDS011;11327;52.334;9.506;2024-02-21T02:33:44;29.02;;;17.20;;
22318;SDS011;11327;52.334;9.506;2024-02-21T02:37:05;33.48;;;18.05;;
22318;SDS011;11327;52.334;9.506;2024-02-21T02:40:26;31.68;;;17.85;;
22318;SDS011;11327;52.334;9.506;2024-02-21T02:43:47;34.75;;;18.98;;
22318;SDS011;11327;52.334;9.506;2024-02-21T02:47:08;30.72;;;17.52;;
22318;SDS011;11327;52.334;9.506;2024-02-21T02:50:29;31.23;;;17.82;;
22318;SDS011;11327;52.334;9.506;2024-02-21T02:53:50;28.87;;;18.00;;
22318;SDS011;11327;52.334;9.506;2024-02-21T02:57:11;31.68;;;18.15;;
22318;SDS011;11327;52.334;9.506;2024-02-21T03:00:32;37.03;;;18.32;;
22318;SDS011;11327;52.334;9.506;2024-02-21T03:03:54;34.10;;;18.02;;
22318;SDS011;11327;52.334;9.506;2024-02-21T03:07:15;33.35;;;18.60;;
22318;SDS011;11327;52.334;9.506;2024-02-21T03:10:36;30.10;;;18.50;;
22318;SDS011;11327;52.334;9.506;2024-02-21T03:13:57;31.17;;;17.27;;
22318;SDS011;11327;52.334;9.506;2024-02-21T03:17:17;31.37;;;17.42;;
22318;SDS011;11327;52.334;9.506;2024-02-21T03:20:38;28.02;;;16.60;;
22318;SDS011;11327;52.334;9.506;2024-02-21T03:23:59;30.40;;;17.35;;
22318;SDS011;11327;52.334;9.506;2024-02-21T03:27:19;29.92;;;18.20;;
22318;SDS011;11327;52.334;9.506;2024-02-21T03:30:40;34.55;;;17.90;;
22318;SDS011;11327;52.334;9.506;2024-02-21T03:34:01;29.18;;;17.30;;
22318;SDS011;11327;52.334;9.506;2024-02-21T03:37:21;30.20;;;17.02;;
22318;SDS011;11327;52.334;9.506;2024-02-21T03:40:42;29.55;;;17.37;;
22318;SDS011;11327;52.334;9.506;2024-02-21T03:44:03;31.48;;;17.37;;
22318;SDS011;11327;52.334;9.506;2024-02-21T03:47:24;33.98;;;17.85;;
22318;SDS011;11327;52.334;9.506;2024-02-21T03:50:45;36.85;;;17.80;;
22318;SDS011;11327;52.334;9.506;2024-02-21T03:54:06;31.60;;;17.32;;
22318;SDS011;11327;52.334;9.506;2024-02-21T03:57:26;33.15;;;17.50;;
22318;SDS011;11327;52.334;9.506;2024-02-21T04:00:47;29.07;;;16.80;;
22318;SDS011;11327;52.334;9.506;2024-02-21T04:04:09;32.00;;;16.30;;
22318;SDS011;11327;52.334;9.506;2024-02-21T04:07:30;31.65;;;16.93;;
22318;SDS011;11327;52.334;9.506;2024-02-21T04:10:51;33.45;;;17.00;;
22318;SDS011;11327;52.334;9.506;2024-02-21T04:14:12;29.55;;;16.52;;
22318;SDS011;11327;52.334;9.506;2024-02-21T04:17:32;30.43;;;16.97;;
22318;SDS011;11327;52.334;9.506;2024-02-21T04:20:53;30.25;;;17.30;;
22318;SDS011;11327;52.334;9.506;2024-02-21T04:24:14;29.72;;;16.87;;
22318;SDS011;11327;52.334;9.506;2024-02-21T04:27:34;33.85;;;17.65;;
22318;SDS011;11327;52.334;9.506;2024-02-21T04:30:55;32.58;;;17.70;;
22318;SDS011;11327;52.334;9.506;2024-02-21T04:34:16;29.67;;;16.77;;
22318;SDS011;11327;52.334;9.506;2024-02-21T04:37:36;31.90;;;17.23;;
22318;SDS011;11327;52.334;9.506;2024-02-21T04:40:57;30.70;;;16.73;;
22318;SDS011;11327;52.334;9.506;2024-02-21T04:44:18;31.50;;;17.73;;
22318;SDS011;11327;52.334;9.506;2024-02-21T04:47:42;34.88;;;18.23;;
22318;SDS011;11327;52.334;9.506;2024-02-21T04:51:03;33.80;;;18.45;;
22318;SDS011;11327;52.334;9.506;2024-02-21T04:54:24;34.33;;;17.98;;
22318;SDS011;11327;52.334;9.506;2024-02-21T04:57:45;33.55;;;17.65;;
22318;SDS011;11327;52.334;9.506;2024-02-21T05:01:06;33.23;;;17.55;;
22318;SDS011;11327;52.334;9.506;2024-02-21T05:04:28;31.37;;;18.00;;
22318;SDS011;11327;52.334;9.506;2024-02-21T05:07:48;33.05;;;18.17;;
22318;SDS011;11327;52.334;9.506;2024-02-21T05:11:09;34.08;;;18.32;;
22318;SDS011;11327;52.334;9.506;2024-02-21T05:14:30;32.48;;;17.70;;
22318;SDS011;11327;52.334;9.506;2024-02-21T05:17:51;31.17;;;18.10;;
22318;SDS011;11327;52.334;9.506;2024-02-21T05:21:11;32.40;;;18.25;;
22318;SDS011;11327;52.334;9.506;2024-02-21T05:24:33;30.23;;;17.15;;
22318;SDS011;11327;52.334;9.506;2024-02-21T05:27:53;33.70;;;19.20;;
22318;SDS011;11327;52.334;9.506;2024-02-21T05:31:17;32.10;;;17.30;;
22318;SDS011;11327;52.334;9.506;2024-02-21T05:34:38;36.48;;;19.23;;
22318;SDS011;11327;52.334;9.506;2024-02-21T05:37:59;33.95;;;18.52;;
22318;SDS011;11327;52.334;9.506;2024-02-21T05:41:19;33.78;;;18.25;;
22318;SDS011;11327;52.334;9.506;2024-02-21T05:44:40;28.73;;;17.37;;
22318;SDS011;11327;52.334;9.506;2024-02-21T05:48:01;33.33;;;18.15;;
22318;SDS011;11327;52.334;9.506;2024-02-21T05:51:23;34.85;;;18.45;;
22318;SDS011;11327;52.334;9.506;2024-02-21T05:54:43;29.42;;;17.80;;
22318;SDS011;11327;52.334;9.506;2024-02-21T05:58:04;35.38;;;18.35;;
22318;SDS011;11327;52.334;9.506;2024-02-21T06:01:26;35.55;;;19.23;;
22318;SDS011;11327;52.334;9.506;2024-02-21T06:04:46;32.60;;;19.37;;
22318;SDS011;11327;52.334;9.506;2024-02-21T06:08:07;30.17;;;18.85;;
22318;SDS011;11327;52.334;9.506;2024-02-21T06:11:29;28.32;;;17.90;;
22318;SDS011;11327;52.334;9.506;2024-02-21T06:14:50;30.97;;;17.67;;
22318;SDS011;11327;52.334;9.506;2024-02-21T06:18:10;34.45;;;18.82;;
22318;SDS011;11327;52.334;9.506;2024-02-21T06:21:31;30.20;;;18.00;;
22318;SDS011;11327;52.334;9.506;2024-02-21T06:24:52;27.48;;;17.42;;
22318;SDS011;11327;52.334;9.506;2024-02-21T06:28:14;29.82;;;18.67;;
22318;SDS011;11327;52.334;9.506;2024-02-21T06:31:35;29.80;;;17.82;;
22318;SDS011;11327;52.334;9.506;2024-02-21T06:34:56;31.70;;;18.75;;
22318;SDS011;11327;52.334;9.506;2024-02-21T06:38:17;31.73;;;18.87;;
22318;SDS011;11327;52.334;9.506;2024-02-21T06:41:38;32.73;;;19.65;;
22318;SDS011;11327;52.334;9.506;2024-02-21T06:44:59;34.70;;;19.23;;
22318;SDS011;11327;52.334;9.506;2024-02-21T06:48:19;33.48;;;18.57;;
22318;SDS011;11327;52.334;9.506;2024-02-21T06:51:40;31.95;;;18.00;;
22318;SDS011;11327;52.334;9.506;2024-02-21T06:55:01;29.67;;;17.85;;
22318;SDS011;11327;52.334;9.506;2024-02-21T06:58:22;30.23;;;18.12;;
22318;SDS011;11327;52.334;9.506;2024-02-21T07:01:47;32.38;;;17.17;;
22318;SDS011;11327;52.334;9.506;2024-02-21T07:05:12;27.22;;;15.68;;
22318;SDS011;11327;52.334;9.506;2024-02-21T07:08:33;29.27;;;16.12;;
22318;SDS011;11327;52.334;9.506;2024-02-21T07:11:54;26.52;;;16.27;;
22318;SDS011;11327;52.334;9.506;2024-02-21T07:15:14;26.33;;;15.93;;
22318;SDS011;11327;52.334;9.506;2024-02-21T07:18:35;29.05;;;16.45;;
22318;SDS011;11327;52.334;9.506;2024-02-21T07:21:56;25.68;;;15.10;;
22318;SDS011;11327;52.334;9.506;2024-02-21T07:25:17;26.73;;;15.60;;
22318;SDS011;11327;52.334;9.506;2024-02-21T07:28:38;28.15;;;15.98;;
22318;SDS011;11327;52.334;9.506;2024-02-21T07:31:59;27.20;;;14.93;;
22318;SDS011;11327;52.334;9.506;2024-02-21T07:35:19;27.02;;;15.93;;
22318;SDS011;11327;52.334;9.506;2024-02-21T07:38:40;25.02;;;15.13;;
22318;SDS011;11327;52.334;9.506;2024-02-21T07:42:02;25.35;;;15.05;;
22318;SDS011;11327;52.334;9.506;2024-02-21T07:45:22;24.65;;;15.43;;
22318;SDS011;11327;52.334;9.506;2024-02-21T07:48:47;30.48;;;16.12;;
22318;SDS011;11327;52.334;9.506;2024-02-21T07:52:08;25.88;;;15.25;;
22318;SDS011;11327;52.334;9.506;2024-02-21T07:55:30;28.10;;;14.98;;
22318;SDS011;11327;52.334;9.506;2024-02-21T07:58:50;29.67;;;15.28;;
22318;SDS011;11327;52.334;9.506;2024-02-21T08:02:11;27.73;;;14.63;;
22318;SDS011;11327;52.334;9.506;2024-02-21T08:05:34;27.90;;;14.98;;
22318;SDS011;11327;52.334;9.506;2024-02-21T08:08:55;26.00;;;15.03;;
22318;SDS011;11327;52.334;9.506;2024-02-21T08:12:17;24.47;;;14.85;;
22318;SDS011;11327;52.334;9.506;2024-02-21T08:15:38;26.00;;;15.08;;
22318;SDS011;11327;52.334;9.506;2024-02-21T08:19:00;27.13;;;14.50;;
22318;SDS011;11327;52.334;9.506;2024-02-21T08:22:22;29.30;;;14.35;;
22318;SDS011;11327;52.334;9.506;2024-02-21T08:25:43;25.20;;;13.25;;
22318;SDS011;11327;52.334;9.506;2024-02-21T08:29:04;23.00;;;12.78;;
22318;SDS011;11327;52.334;9.506;2024-02-21T08:32:24;22.00;;;12.68;;
22318;SDS011;11327;52.334;9.506;2024-02-21T08:35:45;19.07;;;11.55;;
22318;SDS011;11327;52.334;9.506;2024-02-21T08:39:06;22.05;;;11.12;;
22318;SDS011;11327;52.334;9.506;2024-02-21T08:42:27;18.05;;;10.53;;
22318;SDS011;11327;52.334;9.506;2024-02-21T08:45:48;19.87;;;10.45;;
22318;SDS011;11327;52.334;9.506;2024-02-21T08:49:09;17.25;;;9.38;;
22318;SDS011;11327;52.334;9.506;2024-02-21T08:52:30;16.05;;;9.38;;
22318;SDS011;11327;52.334;9.506;2024-02-21T08:55:53;16.67;;;9.28;;
22318;SDS011;11327;52.334;9.506;2024-02-21T08:59:16;14.80;;;9.10;;
22318;SDS011;11327;52.334;9.506;2024-02-21T09:02:39;15.55;;;8.60;;
22318;SDS011;11327;52.334;9.506;2024-02-21T09:06:05;16.52;;;8.10;;
22318;SDS011;11327;52.334;9.506;2024-02-21T09:09:26;16.67;;;8.25;;
22318;SDS011;11327;52.334;9.506;2024-02-21T09:12:48;15.60;;;8.20;;
22318;SDS011;11327;52.334;9.506;2024-02-21T09:16:09;19.50;;;9.10;;
22318;SDS011;11327;52.334;9.506;2024-02-21T09:19:29;13.35;;;8.00;;
22318;SDS011;11327;52.334;9.506;2024-02-21T09:22:50;17.20;;;7.72;;
22318;SDS011;11327;52.334;9.506;2024-02-21T09:26:12;15.30;;;7.72;;
22318;SDS011;11327;52.334;9.506;2024-02-21T09:29:34;11.88;;;7.65;;
22318;SDS011;11327;52.334;9.506;2024-02-21T09:32:55;12.60;;;7.87;;
22318;SDS011;11327;52.334;9.506;2024-02-21T09:36:15;15.08;;;7.70;;
22318;SDS011;11327;52.334;9.506;2024-02-21T09:39:36;15.30;;;7.67;;
22318;SDS011;11327;52.334;9.506;2024-02-21T09:43:02;12.63;;;7.28;;
22318;SDS011;11327;52.334;9.506;2024-02-21T09:46:26;14.55;;;7.33;;
22318;SDS011;11327;52.334;9.506;2024-02-21T09:49:49;13.98;;;6.62;;
22318;SDS011;11327;52.334;9.506;2024-02-21T09:53:11;11.80;;;6.47;;
22318;SDS011;11327;52.334;9.506;2024-02-21T09:56:34;14.30;;;6.45;;
22318;SDS011;11327;52.334;9.506;2024-02-21T09:59:55;12.05;;;6.20;;
22318;SDS011;11327;52.334;9.506;2024-02-21T10:03:17;11.83;;;6.20;;
22318;SDS011;11327;52.334;9.506;2024-02-21T10:06:37;11.93;;;5.95;;
22318;SDS011;11327;52.334;9.506;2024-02-21T10:10:02;11.68;;;5.87;;
22318;SDS011;11327;52.334;9.506;2024-02-21T10:13:28;11.83;;;5.53;;
22318;SDS011;11327;52.334;9.506;2024-02-21T10:16:49;9.65;;;5.33;;
22318;SDS011;11327;52.334;9.506;2024-02-21T10:20:11;10.75;;;5.45;;
22318;SDS011;11327;52.334;9.506;2024-02-21T10:23:44;8.88;;;5.42;;
22318;SDS011;11327;52.334;9.506;2024-02-21T10:27:06;9.20;;;5.30;;
22318;SDS011;11327;52.334;9.506;2024-02-21T10:30:33;9.53;;;5.30;;
22318;SDS011;11327;52.334;9.506;2024-02-21T10:33:57;9.58;;;4.70;;
22318;SDS011;11327;52.334;9.506;2024-02-21T10:37:23;9.80;;;4.63;;
22318;SDS011;11327;52.334;9.506;2024-02-21T10:40:44;8.53;;;4.30;;
22318;SDS011;11327;52.334;9.506;2024-02-21T10:44:07;8.25;;;4.05;;
22318;SDS011;11327;52.334;9.506;2024-02-21T10:47:30;18.12;;;4.33;;
22318;SDS011;11327;52.334;9.506;2024-02-21T10:50:58;9.55;;;3.72;;
22318;SDS011;11327;52.334;9.506;2024-02-21T10:54:35;9.63;;;4.00;;
22318;SDS011;11327;52.334;9.506;2024-02-21T10:58:07;6.35;;;3.67;;
22318;SDS011;11327;52.334;9.506;2024-02-21T11:01:31;6.62;;;3.58;;
22318;SDS011;11327;52.334;9.506;2024-02-21T11:04:52;5.67;;;3.42;;
22318;SDS011;11327;52.334;9.506;2024-02-21T11:08:15;5.62;;;2.95;;
22318;SDS011;11327;52.334;9.506;2024-02-21T11:11:37;8.45;;;3.87;;
22318;SDS011;11327;52.334;9.506;2024-02-21T11:15:05;8.58;;;4.12;;
22318;SDS011;11327;52.334;9.506;2024-02-21T11:18:26;9.18;;;3.40;;
22318;SDS011;11327;52.334;9.506;2024-02-21T11:21:47;6.85;;;3.50;;
22318;SDS011;11327;52.334;9.506;2024-02-21T11:25:08;5.05;;;3.05;;
22318;SDS011;11327;52.334;9.506;2024-02-21T11:28:32;8.48;;;3.77;;
22318;SDS011;11327;52.334;9.506;2024-02-21T11:31:54;6.92;;;3.40;;
22318;SDS011;11327;52.334;9.506;2024-02-21T11:35:24;5.50;;;3.50;;
22318;SDS011;11327;52.334;9.506;2024-02-21T11:38:40;6.15;;;3.00;;
22318;SDS011;11327;52.334;9.506;2024-02-21T11:42:04;6.78;;;3.65;;
22318;SDS011;11327;52.334;9.506;2024-02-21T11:45:28;5.58;;;3.00;;
22318;SDS011;11327;52.334;9.506;2024-02-21T11:48:48;8.55;;;3.40;;
22318;SDS011;11327;52.334;9.506;2024-02-21T11:52:10;5.78;;;2.90;;
22318;SDS011;11327;52.334;9.506;2024-02-21T11:55:31;7.17;;;3.42;;
22318;SDS011;11327;52.334;9.506;2024-02-21T11:58:52;6.05;;;3.00;;
22318;SDS011;11327;52.334;9.506;2024-02-21T12:02:13;8.28;;;3.95;;
22318;SDS011;11327;52.334;9.506;2024-02-21T12:05:34;6.67;;;3.80;;
22318;SDS011;11327;52.334;9.506;2024-02-21T12:08:57;7.58;;;4.35;;
22318;SDS011;11327;52.334;9.506;2024-02-21T12:12:19;8.73;;;4.70;;
22318;SDS011;11327;52.334;9.506;2024-02-21T12:15:40;7.35;;;4.90;;
22318;SDS011;11327;52.334;9.506;2024-02-21T12:19:03;9.03;;;4.47;;
22318;SDS011;11327;52.334;9.506;2024-02-21T12:22:24;8.33;;;4.45;;
22318;SDS011;11327;52.334;9.506;2024-02-21T12:25:45;8.55;;;5.35;;
22318;SDS011;11327;52.334;9.506;2024-02-21T12:29:06;13.38;;;5.75;;
22318;SDS011;11327;52.334;9.506;2024-02-21T12:32:30;11.63;;;5.33;;
22318;SDS011;11327;52.334;9.506;2024-02-21T12:35:51;9.27;;;5.10;;
22318;SDS011;11327;52.334;9.506;2024-02-21T12:39:14;11.38;;;5.42;;
22318;SDS011;11327;52.334;9.506;2024-02-21T12:42:36;10.78;;;6.10;;
22318;SDS011;11327;52.334;9.506;2024-02-21T12:45:57;10.82;;;6.20;;
22318;SDS011;11327;52.334;9.506;2024-02-21T12:49:17;12.58;;;6.65;;
22318;SDS011;11327;52.334;9.506;2024-02-21T12:52:38;13.00;;;7.37;;
22318;SDS011;11327;52.334;9.506;2024-02-21T12:55:59;10.88;;;6.75;;
22318;SDS011;11327;52.334;9.506;2024-02-21T12:59:20;10.95;;;6.17;;
22318;SDS011;11327;52.334;9.506;2024-02-21T13:02:41;11.15;;;7.22;;
22318;SDS011;11327;52.334;9.506;2024-02-21T13:06:03;10.35;;;6.03;;
22318;SDS011;11327;52.334;9.506;2024-02-21T13:09:24;9.95;;;6.10;;
22318;SDS011;11327;52.334;9.506;2024-02-21T13:12:45;10.63;;;5.60;;
22318;SDS011;11327;52.334;9.506;2024-02-21T13:16:05;10.03;;;5.60;;
22318;SDS011;11327;52.334;9.506;2024-02-21T13:19:27;9.55;;;5.30;;
22318;SDS011;11327;52.334;9.506;2024-02-21T13:22:48;9.18;;;5.10;;
22318;SDS011;11327;52.334;9.506;2024-02-21T13:26:08;8.88;;;4.90;;
22318;SDS011;11327;52.334;9.506;2024-02-21T13:29:30;8.45;;;4.50;;
22318;SDS011;11327;52.334;9.506;2024-02-21T13:32:51;9.43;;;4.62;;
22318;SDS011;11327;52.334;9.506;2024-02-21T13:36:12;9.80;;;4.80;;
22318;SDS011;11327;52.334;9.506;2024-02-21T13:39:32;8.23;;;4.35;;
22318;SDS011;11327;52.334;9.506;2024-02-21T13:42:55;6.83;;;3.47;;
22318;SDS011;11327;52.334;9.506;2024-02-21T13:46:15;7.28;;;4.05;;
22318;SDS011;11327;52.334;9.506;2024-02-21T13:49:36;7.00;;;3.45;;
22318;SDS011;11327;52.334;9.506;2024-02-21T13:52:57;6.85;;;2.98;;
22318;SDS011;11327;52.334;9.506;2024-02-21T13:56:18;5.78;;;2.87;;
22318;SDS011;11327;52.334;9.506;2024-02-21T13:59:39;6.10;;;2.90;;
22318;SDS011;11327;52.334;9.506;2024-02-21T14:03:00;6.62;;;3.00;;
22318;SDS011;11327;52.334;9.506;2024-02-21T14:06:21;6.55;;;2.52;;
22318;SDS011;11327;52.334;9.506;2024-02-21T14:09:42;6.45;;;2.45;;
22318;SDS011;11327;52.334;9.506;2024-02-21T14:13:03;6.45;;;2.30;;
22318;SDS011;11327;52.334;9.506;2024-02-21T14:16:25;5.15;;;2.30;;
22318;SDS011;11327;52.334;9.506;2024-02-21T14:19:46;5.65;;;2.22;;
22318;SDS011;11327;52.334;9.506;2024-02-21T14:23:07;4.72;;;2.37;;
22318;SDS011;11327;52.334;9.506;2024-02-21T14:26:27;5.03;;;2.35;;
22318;SDS011;11327;52.334;9.506;2024-02-21T14:29:48;5.92;;;2.20;;
22318;SDS011;11327;52.334;9.506;2024-02-21T14:33:09;4.25;;;2.08;;
22318;SDS011;11327;52.334;9.506;2024-02-21T14:36:30;7.67;;;2.17;;
22318;SDS011;11327;52.334;9.506;2024-02-21T14:39:50;4.40;;;1.95;;
22318;SDS011;11327;52.334;9.506;2024-02-21T14:43:11;6.17;;;2.15;;
22318;SDS011;11327;52.334;9.506;2024-02-21T14:46:32;4.20;;;1.90;;
22318;SDS011;11327;52.334;9.506;2024-02-21T14:49:54;6.05;;;2.30;;
22318;SDS011;11327;52.334;9.506;2024-02-21T14:53:15;7.03;;;2.35;;
22318;SDS011;11327;52.334;9.506;2024-02-21T14:56:37;6.33;;;2.25;;
22318;SDS011;11327;52.334;9.506;2024-02-21T14:59:59;6.55;;;3.08;;
22318;SDS011;11327;52.334;9.506;2024-02-21T15:03:20;7.03;;;3.10;;
22318;SDS011;11327;52.334;9.506;2024-02-21T15:06:41;8.43;;;3.08;;
22318;SDS011;11327;52.334;9.506;2024-02-21T15:10:03;8.58;;;2.98;;
22318;SDS011;11327;52.334;9.506;2024-02-21T15:13:24;7.17;;;3.10;;
22318;SDS011;11327;52.334;9.506;2024-02-21T15:16:45;6.30;;;2.67;;
22318;SDS011;11327;52.334;9.506;2024-02-21T15:20:06;9.43;;;3.25;;
22318;SDS011;11327;52.334;9.506;2024-02-21T15:23:28;6.67;;;3.22;;
22318;SDS011;11327;52.334;9.506;2024-02-21T15:26:49;8.28;;;2.83;;
22318;SDS011;11327;52.334;9.506;2024-02-21T15:30:14;8.95;;;3.17;;
22318;SDS011;11327;52.334;9.506;2024-02-21T15:33:33;8.40;;;3.17;;
22318;SDS011;11327;52.334;9.506;2024-02-21T15:36:54;8.45;;;3.12;;
22318;SDS011;11327;52.334;9.506;2024-02-21T15:40:14;9.05;;;3.15;;
22318;SDS011;11327;52.334;9.506;2024-02-21T15:43:35;6.28;;;2.92;;
22318;SDS011;11327;52.334;9.506;2024-02-21T15:46:58;8.98;;;3.35;;
22318;SDS011;11327;52.334;9.506;2024-02-21T15:50:19;7.28;;;2.80;;
22318;SDS011;11327;52.334;9.506;2024-02-21T15:53:40;8.13;;;3.10;;
22318;SDS011;11327;52.334;9.506;2024-02-21T15:57:03;7.40;;;3.10;;
22318;SDS011;11327;52.334;9.506;2024-02-21T16:00:26;10.63;;;3.42;;
22318;SDS011;11327;52.334;9.506;2024-02-21T16:03:46;6.22;;;2.80;;
22318;SDS011;11327;52.334;9.506;2024-02-21T16:07:07;6.08;;;2.60;;
22318;SDS011;11327;52.334;9.506;2024-02-21T16:10:28;5.62;;;2.60;;
22318;SDS011;11327;52.334;9.506;2024-02-21T16:13:49;6.28;;;2.45;;
22318;SDS011;11327;52.334;9.506;2024-02-21T16:17:10;8.43;;;2.90;;
22318;SDS011;11327;52.334;9.506;2024-02-21T16:20:31;7.85;;;2.95;;
22318;SDS011;11327;52.334;9.506;2024-02-21T16:23:52;7.17;;;3.00;;
22318;SDS011;11327;52.334;9.506;2024-02-21T16:27:13;7.50;;;2.75;;
22318;SDS011;11327;52.334;9.506;2024-02-21T16:30:34;6.12;;;2.90;;
22318;SDS011;11327;52.334;9.506;2024-02-21T16:33:55;6.67;;;3.02;;
22318;SDS011;11327;52.334;9.506;2024-02-21T16:37:16;8.63;;;3.30;;
22318;SDS011;11327;52.334;9.506;2024-02-21T16:40:37;9.73;;;3.40;;
22318;SDS011;11327;52.334;9.506;2024-02-21T16:43:58;9.58;;;3.33;;
22318;SDS011;11327;52.334;9.506;2024-02-21T16:47:18;7.12;;;3.47;;
22318;SDS011;11327;52.334;9.506;2024-02-21T16:50:40;11.18;;;3.90;;
22318;SDS011;11327;52.334;9.506;2024-02-21T16:54:00;7.95;;;3.77;;
22318;SDS011;11327;52.334;9.506;2024-02-21T16:57:23;13.05;;;5.12;;
22318;SDS011;11327;52.334;9.506;2024-02-21T17:00:44;7.22;;;3.10;;
22318;SDS011;11327;52.334;9.506;2024-02-21T17:04:05;10.23;;;3.12;;
22318;SDS011;11327;52.334;9.506;2024-02-21T17:07:27;9.08;;;3.62;;
22318;SDS011;11327;52.334;9.506;2024-02-21T17:10:47;7.00;;;3.40;;
22318;SDS011;11327;52.334;9.506;2024-02-21T17:14:08;8.45;;;3.02;;
22318;SDS011;11327;52.334;9.506;2024-02-21T17:17:29;9.03;;;4.00;;
22318;SDS011;11327;52.334;9.506;2024-02-21T17:20:50;12.98;;;5.25;;
22318;SDS011;11327;52.334;9.506;2024-02-21T17:24:10;11.48;;;5.10;;
22318;SDS011;11327;52.334;9.506;2024-02-21T17:27:31;8.90;;;4.45;;
22318;SDS011;11327;52.334;9.506;2024-02-21T17:30:52;10.95;;;4.20;;
22318;SDS011;11327;52.334;9.506;2024-02-21T17:34:12;8.63;;;3.40;;
22318;SDS011;11327;52.334;9.506;2024-02-21T17:37:33;6.85;;;3.65;;
22318;SDS011;11327;52.334;9.506;2024-02-21T17:40:54;6.97;;;3.90;;
22318;SDS011;11327;52.334;9.506;2024-02-21T17:44:15;6.55;;;3.40;;
22318;SDS011;11327;52.334;9.506;2024-02-21T17:47:35;9.20;;;3.90;;
22318;SDS011;11327;52.334;9.506;2024-02-21T17:50:56;10.35;;;3.95;;
22318;SDS011;11327;52.334;9.506;2024-02-21T17:54:17;6.55;;;3.65;;
22318;SDS011;11327;52.334;9.506;2024-02-21T17:57:38;7.67;;;3.75;;
22318;SDS011;11327;52.334;9.506;2024-02-21T18:01:01;10.53;;;4.28;;
22318;SDS011;11327;52.334;9.506;2024-02-21T18:04:21;8.40;;;4.03;;
22318;SDS011;11327;52.334;9.506;2024-02-21T18:07:43;8.93;;;4.30;;
22318;SDS011;11327;52.334;9.506;2024-02-21T18:11:04;9.93;;;4.25;;
22318;SDS011;11327;52.334;9.506;2024-02-21T18:14:25;8.20;;;4.10;;
22318;SDS011;11327;52.334;9.506;2024-02-21T18:17:46;9.23;;;4.50;;
22318;SDS011;11327;52.334;9.506;2024-02-21T18:21:08;10.18;;;4.40;;
22318;SDS011;11327;52.334;9.506;2024-02-21T18:24:29;8.30;;;4.22;;
22318;SDS011;11327;52.334;9.506;2024-02-21T18:27:50;8.20;;;4.22;;
22318;SDS011;11327;52.334;9.506;2024-02-21T18:31:12;9.10;;;4.58;;
22318;SDS011;11327;52.334;9.506;2024-02-21T18:34:33;12.07;;;4.55;;
22318;SDS011;11327;52.334;9.506;2024-02-21T18:37:54;8.13;;;4.05;;
22318;SDS011;11327;52.334;9.506;2024-02-21T18:41:16;8.90;;;4.20;;
22318;SDS011;11327;52.334;9.506;2024-02-21T18:44:36;8.80;;;4.60;;
22318;SDS011;11327;52.334;9.506;2024-02-21T18:47:57;9.25;;;4.45;;
22318;SDS011;11327;52.334;9.506;2024-02-21T18:51:18;10.10;;;4.80;;
22318;SDS011;11327;52.334;9.506;2024-02-21T18:54:39;9.45;;;4.60;;
22318;SDS011;11327;52.334;9.506;2024-02-21T18:58:02;10.05;;;4.40;;
22318;SDS011;11327;52.334;9.506;2024-02-21T19:01:23;10.00;;;5.03;;
22318;SDS011;11327;52.334;9.506;2024-02-21T19:04:44;9.53;;;4.28;;
22318;SDS011;11327;52.334;9.506;2024-02-21T19:08:05;8.00;;;4.25;;
22318;SDS011;11327;52.334;9.506;2024-02-21T19:11:26;9.00;;;4.60;;
22318;SDS011;11327;52.334;9.506;2024-02-21T19:14:46;9.68;;;4.50;;
22318;SDS011;11327;52.334;9.506;2024-02-21T19:18:07;7.62;;;3.80;;
22318;SDS011;11327;52.334;9.506;2024-02-21T19:21:28;9.88;;;4.40;;
22318;SDS011;11327;52.334;9.506;2024-02-21T19:24:49;8.93;;;4.05;;
22318;SDS011;11327;52.334;9.506;2024-02-21T19:28:09;9.63;;;4.25;;
22318;SDS011;11327;52.334;9.506;2024-02-21T19:31:33;8.85;;;3.90;;
22318;SDS011;11327;52.334;9.506;2024-02-21T19:34:54;10.08;;;4.50;;
22318;SDS011;11327;52.334;9.506;2024-02-21T19:38:17;10.88;;;4.45;;
22318;SDS011;11327;52.334;9.506;2024-02-21T19:41:38;11.22;;;4.78;;
22318;SDS011;11327;52.334;9.506;2024-02-21T19:44:59;9.90;;;3.50;;
22318;SDS011;11327;52.334;9.506;2024-02-21T19:48:19;9.85;;;4.22;;
22318;SDS011;11327;52.334;9.506;2024-02-21T19:51:40;8.35;;;3.40;;
22318;SDS011;11327;52.334;9.506;2024-02-21T19:55:01;8.15;;;3.87;;